createdAt,value
2022-11-14T00:04:45.230Z,3.97
2022-11-14T00:09:55.645Z,3.53
2022-11-14T00:15:13.915Z,3.13
2022-11-14T00:20:24.954Z,4.10
2022-11-14T00:25:40.630Z,3.53
2022-11-14T00:31:02.962Z,3.47
2022-11-14T00:42:27.593Z,3.70
2022-11-14T00:47:40.669Z,4.60
2022-11-14T00:53:00.984Z,3.30
2022-11-14T00:58:31.720Z,3.20
2022-11-14T01:03:45.302Z,4.83
2022-11-14T01:08:57.410Z,3.47
2022-11-14T01:14:10.379Z,4.60
2022-11-14T01:19:19.436Z,4.70
2022-11-14T01:24:34.850Z,4.30
2022-11-14T01:29:41.956Z,5.03
2022-11-14T01:34:50.198Z,4.80
2022-11-14T01:40:03.764Z,5.10
2022-11-14T01:45:56.320Z,4.27
2022-11-14T01:51:36.482Z,4.83
2022-11-14T01:57:21.812Z,4.83
2022-11-14T05:24:37.066Z,6.17
2022-11-14T05:29:45.274Z,7.10
2022-11-14T05:34:51.051Z,6.37
2022-11-14T05:39:56.573Z,6.63
2022-11-14T05:45:06.506Z,5.40
2022-11-14T05:50:21.209Z,7.43
2022-11-14T05:55:37.965Z,6.27
2022-11-14T06:00:50.907Z,8.20
2022-11-14T06:05:57.710Z,6.80
2022-11-14T06:11:09.515Z,6.43
2022-11-14T06:27:36.866Z,9.73
2022-11-14T06:32:49.539Z,8.33
2022-11-14T06:38:06.301Z,9.70
2022-11-14T06:43:25.657Z,8.37
2022-11-14T06:48:50.318Z,7.70
2022-11-14T06:54:22.165Z,10.53
2022-11-14T07:05:09.853Z,10.10
2022-11-14T07:10:28.725Z,22.40
2022-11-14T07:15:45.209Z,14.63
2022-11-14T07:21:01.530Z,11.10
2022-11-14T07:26:10.907Z,18.87
2022-11-14T07:31:21.365Z,13.90
2022-11-14T07:36:29.743Z,10.10
2022-11-14T07:41:35.348Z,10.77
2022-11-14T07:46:46.072Z,8.03
2022-11-14T07:51:51.940Z,8.47
2022-11-14T07:56:57.601Z,9.00
2022-11-14T08:02:08.441Z,9.80
2022-11-14T08:07:14.096Z,13.37
2022-11-14T08:12:19.687Z,9.33
2022-11-14T08:17:28.151Z,9.40
2022-11-14T08:22:37.164Z,9.00
2022-11-14T08:27:42.948Z,9.73
2022-11-14T08:32:48.495Z,6.97
2022-11-14T08:37:54.046Z,9.33
2022-11-14T08:43:08.758Z,8.40
2022-11-14T08:48:15.347Z,9.33
2022-11-14T08:53:21.586Z,10.93
2022-11-14T08:58:31.041Z,9.53
2022-11-14T09:03:38.278Z,7.00
2022-11-14T09:08:43.927Z,9.10
2022-11-14T09:13:49.687Z,8.97
2022-11-14T09:18:56.279Z,8.40
2022-11-14T09:24:02.069Z,8.50
2022-11-14T09:29:10.088Z,7.17
2022-11-14T09:34:15.642Z,5.53
2022-11-14T09:39:21.152Z,10.40
2022-11-14T09:44:41.640Z,7.37
2022-11-14T09:49:48.968Z,8.70
2022-11-14T09:54:57.483Z,8.03
2022-11-14T10:00:03.196Z,8.90
2022-11-14T10:05:24.105Z,8.60
2022-11-14T10:10:41.491Z,7.57
2022-11-14T10:15:55.739Z,9.00
2022-11-14T10:21:04.302Z,6.80
2022-11-14T10:26:31.689Z,10.73
2022-11-14T10:31:42.945Z,9.67
2022-11-14T10:36:57.714Z,8.77
2022-11-14T10:42:07.888Z,10.57
2022-11-14T10:47:16.078Z,12.13
2022-11-14T10:52:24.105Z,10.90
2022-11-14T10:57:30.265Z,15.03
2022-11-14T11:02:56.568Z,12.67
2022-11-14T11:13:33.075Z,12.43
2022-11-14T11:18:38.845Z,11.27
2022-11-14T11:23:58.192Z,13.07
2022-11-14T11:29:12.274Z,12.33
2022-11-14T11:34:26.770Z,11.37
2022-11-14T11:39:34.798Z,12.77
2022-11-14T11:44:43.218Z,11.50
2022-11-14T11:49:54.711Z,11.30
2022-11-14T11:55:11.365Z,12.67
2022-11-14T12:00:19.491Z,9.50
2022-11-14T12:05:27.858Z,10.73
2022-11-14T12:10:36.249Z,11.47
2022-11-14T12:16:02.594Z,11.40
2022-11-14T12:21:12.576Z,16.10
2022-11-14T12:26:41.139Z,21.30
2022-11-14T12:31:47.917Z,14.97
2022-11-14T12:36:53.471Z,14.97
2022-11-14T12:42:07.459Z,14.60
2022-11-14T12:47:24.610Z,12.23
2022-11-14T12:52:49.201Z,11.23
2022-11-14T12:58:09.749Z,13.20
2022-11-14T13:03:23.788Z,10.50
2022-11-14T13:08:43.237Z,11.07
2022-11-14T13:14:21.925Z,13.00
2022-11-14T13:25:06.115Z,12.80
2022-11-14T13:36:05.259Z,11.80
2022-11-14T13:41:46.656Z,10.23
2022-11-14T13:46:45.900Z,8.77
2022-11-14T13:51:58.027Z,10.23
2022-11-14T13:57:24.450Z,10.97
2022-11-14T14:03:05.835Z,9.07
2022-11-14T14:08:14.380Z,9.23
2022-11-14T14:13:39.562Z,9.57
2022-11-14T14:18:57.195Z,9.70
2022-11-14T14:24:17.507Z,10.43
2022-11-14T14:29:32.758Z,10.90
2022-11-14T14:34:40.116Z,10.03
2022-11-14T14:40:01.375Z,9.13
2022-11-14T14:45:18.774Z,9.07
2022-11-14T14:50:40.613Z,8.20
2022-11-14T14:55:49.010Z,7.73
2022-11-14T15:01:03.249Z,9.00
2022-11-14T15:06:29.594Z,9.87
2022-11-14T15:11:36.142Z,9.77
2022-11-14T15:16:42.281Z,9.20
2022-11-14T15:21:49.488Z,8.50
2022-11-14T15:27:01.432Z,10.30
2022-11-14T15:32:29.119Z,9.63
2022-11-14T15:37:37.796Z,13.47
2022-11-14T15:42:51.366Z,11.10
2022-11-14T15:48:05.771Z,14.57
2022-11-14T15:53:25.274Z,10.20
2022-11-14T15:58:30.662Z,10.97
2022-11-14T16:03:36.010Z,9.50
2022-11-14T16:08:41.290Z,10.23
2022-11-14T16:13:46.584Z,10.70
2022-11-14T16:18:51.941Z,13.53
2022-11-14T16:23:58.129Z,9.83
2022-11-14T16:29:03.519Z,10.53
2022-11-14T16:34:10.118Z,11.53
2022-11-14T16:39:16.048Z,9.37
2022-11-14T16:44:21.420Z,9.53
2022-11-14T16:49:27.048Z,9.90
2022-11-14T16:54:33.419Z,10.63
2022-11-14T16:59:39.912Z,12.20
2022-11-14T17:04:45.990Z,10.43
2022-11-14T17:09:51.449Z,8.97
2022-11-14T17:14:56.962Z,9.97
2022-11-14T17:20:02.574Z,15.13
2022-11-14T17:25:08.345Z,13.70
2022-11-14T17:35:19.086Z,12.20
2022-11-14T17:40:24.667Z,10.47
2022-11-14T17:45:30.217Z,10.60
2022-11-14T17:50:38.698Z,11.00
2022-11-14T17:55:45.694Z,10.53
2022-11-14T18:00:52.522Z,12.50
2022-11-14T18:06:12.675Z,12.27
2022-11-14T18:11:20.758Z,16.53
2022-11-14T18:16:50.598Z,14.50
2022-11-14T18:21:38.184Z,10.00
2022-11-14T18:27:08.390Z,11.80
2022-11-14T18:37:47.981Z,10.70
2022-11-14T18:43:04.244Z,13.03
2022-11-14T18:53:57.812Z,10.13
2022-11-14T18:59:05.912Z,13.63
2022-11-14T19:04:13.914Z,13.83
2022-11-14T19:09:25.672Z,13.40
2022-11-14T19:14:33.560Z,16.13
2022-11-14T19:19:40.741Z,11.90
2022-11-14T19:24:47.736Z,12.47
2022-11-14T19:29:54.100Z,12.33
2022-11-14T19:35:03.479Z,11.97
2022-11-14T19:40:14.044Z,13.33
2022-11-14T19:51:05.060Z,15.47
2022-11-14T19:56:12.857Z,15.07
2022-11-14T20:01:36.062Z,13.67
2022-11-14T20:06:43.790Z,11.23
2022-11-14T20:11:49.439Z,11.23
2022-11-14T20:16:54.843Z,13.70
2022-11-14T20:22:00.282Z,12.63
2022-11-14T20:27:05.684Z,9.87
2022-11-14T20:32:15.608Z,12.97
2022-11-14T20:37:18.244Z,12.47
2022-11-14T20:42:23.724Z,10.50
2022-11-14T20:47:30.690Z,13.40
2022-11-14T20:52:38.007Z,14.33
2022-11-14T20:57:43.447Z,13.10
2022-11-14T21:02:49.238Z,12.70
2022-11-14T21:07:54.735Z,13.47
2022-11-14T21:13:17.911Z,10.30
2022-11-14T21:18:23.241Z,13.23
2022-11-14T21:23:28.946Z,11.50
2022-11-14T21:28:35.576Z,9.67
2022-11-14T21:33:40.859Z,10.20
2022-11-14T21:38:46.301Z,11.23
2022-11-14T21:43:59.996Z,11.63
2022-11-14T21:49:05.393Z,11.17
2022-11-14T21:54:11.168Z,10.37
2022-11-14T21:59:19.269Z,12.23
2022-11-14T22:04:25.000Z,10.03
2022-11-14T22:09:31.031Z,12.80
2022-11-14T22:14:36.421Z,10.63
2022-11-14T22:19:41.754Z,10.93
2022-11-14T22:24:47.102Z,12.20
2022-11-14T22:29:52.442Z,12.73
2022-11-14T22:34:57.713Z,11.70
2022-11-14T22:40:03.195Z,10.40
2022-11-14T22:45:09.420Z,13.93
2022-11-14T22:50:14.647Z,11.70
2022-11-14T22:55:21.032Z,12.07
2022-11-14T23:00:26.468Z,13.23
2022-11-14T23:05:36.929Z,10.00
2022-11-14T23:10:42.278Z,12.23
2022-11-14T23:15:48.969Z,12.17
2022-11-14T23:20:54.123Z,9.43
2022-11-14T23:26:05.293Z,10.23
2022-11-14T23:31:12.928Z,11.03
2022-11-14T23:36:18.397Z,14.23
2022-11-14T23:41:26.154Z,11.50
2022-11-14T23:46:32.463Z,11.77
2022-11-14T23:51:38.048Z,11.53
2022-11-14T23:56:43.401Z,11.80
